sensor_id;sensor_type;location;lat;lon;timestamp;P1;durP1;ratioP1;P2;durP2;ratioP2
11498;SDS011;5806;48.748;9.278;2024-03-02T00:00:39;1.47;;;1.30;;
11498;SDS011;5806;48.748;9.278;2024-03-02T00:03:06;2.57;;;1.67;;
11498;SDS011;5806;48.748;9.278;2024-03-02T00:05:36;2.17;;;1.50;;
11498;SDS011;5806;48.748;9.278;2024-03-02T00:08:04;1.77;;;1.13;;
11498;SDS011;5806;48.748;9.278;2024-03-02T00:10:39;1.83;;;1.27;;
11498;SDS011;5806;48.748;9.278;2024-03-02T00:13:08;1.50;;;1.40;;
11498;SDS011;5806;48.748;9.278;2024-03-02T00:15:39;2.13;;;1.40;;
11498;SDS011;5806;48.748;9.278;2024-03-02T00:18:10;1.90;;;1.40;;
11498;SDS011;5806;48.748;9.278;2024-03-02T00:20:39;1.70;;;1.20;;
11498;SDS011;5806;48.748;9.278;2024-03-02T00:23:08;1.77;;;1.20;;
11498;SDS011;5806;48.748;9.278;2024-03-02T00:25:40;2.13;;;1.40;;
11498;SDS011;5806;48.748;9.278;2024-03-02T00:28:27;1.60;;;1.40;;
11498;SDS011;5806;48.748;9.278;2024-03-02T00:31:12;3.73;;;1.60;;
11498;SDS011;5806;48.748;9.278;2024-03-02T00:36:10;2.57;;;1.30;;
11498;SDS011;5806;48.748;9.278;2024-03-02T00:38:42;2.60;;;1.30;;
11498;SDS011;5806;48.748;9.278;2024-03-02T00:41:21;1.90;;;1.10;;
11498;SDS011;5806;48.748;9.278;2024-03-02T00:46:38;1.27;;;1.17;;
11498;SDS011;5806;48.748;9.278;2024-03-02T00:49:20;1.83;;;1.13;;
11498;SDS011;5806;48.748;9.278;2024-03-02T00:51:53;1.27;;;1.10;;
11498;SDS011;5806;48.748;9.278;2024-03-02T00:54:22;1.80;;;1.30;;
11498;SDS011;5806;48.748;9.278;2024-03-02T00:56:51;1.40;;;1.17;;
11498;SDS011;5806;48.748;9.278;2024-03-02T00:59:21;1.40;;;0.97;;
11498;SDS011;5806;48.748;9.278;2024-03-02T01:01:50;1.37;;;1.00;;
11498;SDS011;5806;48.748;9.278;2024-03-02T01:04:18;1.63;;;1.00;;
11498;SDS011;5806;48.748;9.278;2024-03-02T01:06:45;2.20;;;0.93;;
11498;SDS011;5806;48.748;9.278;2024-03-02T01:09:13;1.93;;;0.93;;
11498;SDS011;5806;48.748;9.278;2024-03-02T01:11:42;1.97;;;1.30;;
11498;SDS011;5806;48.748;9.278;2024-03-02T01:14:09;2.50;;;1.00;;
11498;SDS011;5806;48.748;9.278;2024-03-02T01:16:37;2.37;;;1.20;;
11498;SDS011;5806;48.748;9.278;2024-03-02T01:19:04;1.27;;;1.00;;
11498;SDS011;5806;48.748;9.278;2024-03-02T01:21:32;1.40;;;1.17;;
11498;SDS011;5806;48.748;9.278;2024-03-02T01:23:59;1.50;;;1.40;;
11498;SDS011;5806;48.748;9.278;2024-03-02T01:26:27;1.17;;;0.90;;
11498;SDS011;5806;48.748;9.278;2024-03-02T01:28:54;1.77;;;1.10;;
11498;SDS011;5806;48.748;9.278;2024-03-02T01:31:22;2.20;;;1.33;;
11498;SDS011;5806;48.748;9.278;2024-03-02T01:33:50;1.37;;;0.90;;
11498;SDS011;5806;48.748;9.278;2024-03-02T01:36:17;1.57;;;1.00;;
11498;SDS011;5806;48.748;9.278;2024-03-02T01:38:44;1.63;;;1.00;;
11498;SDS011;5806;48.748;9.278;2024-03-02T01:41:12;1.43;;;1.00;;
11498;SDS011;5806;48.748;9.278;2024-03-02T01:43:40;2.20;;;1.00;;
11498;SDS011;5806;48.748;9.278;2024-03-02T01:46:07;1.20;;;1.07;;
11498;SDS011;5806;48.748;9.278;2024-03-02T01:48:35;2.40;;;1.00;;
11498;SDS011;5806;48.748;9.278;2024-03-02T01:51:02;1.00;;;0.80;;
11498;SDS011;5806;48.748;9.278;2024-03-02T01:53:32;2.93;;;1.20;;
11498;SDS011;5806;48.748;9.278;2024-03-02T01:56:00;1.13;;;1.00;;
11498;SDS011;5806;48.748;9.278;2024-03-02T01:58:29;1.20;;;0.80;;
11498;SDS011;5806;48.748;9.278;2024-03-02T02:00:57;2.03;;;1.20;;
11498;SDS011;5806;48.748;9.278;2024-03-02T02:03:25;1.13;;;0.90;;
11498;SDS011;5806;48.748;9.278;2024-03-02T02:05:52;1.57;;;1.00;;
11498;SDS011;5806;48.748;9.278;2024-03-02T02:08:20;2.00;;;1.17;;
11498;SDS011;5806;48.748;9.278;2024-03-02T02:10:47;2.53;;;1.20;;
11498;SDS011;5806;48.748;9.278;2024-03-02T02:13:15;1.53;;;1.00;;
11498;SDS011;5806;48.748;9.278;2024-03-02T02:15:42;1.53;;;1.13;;
11498;SDS011;5806;48.748;9.278;2024-03-02T02:18:10;3.27;;;1.00;;
11498;SDS011;5806;48.748;9.278;2024-03-02T02:20:37;2.40;;;0.90;;
11498;SDS011;5806;48.748;9.278;2024-03-02T02:23:05;1.80;;;1.00;;
11498;SDS011;5806;48.748;9.278;2024-03-02T02:25:35;1.50;;;0.90;;
11498;SDS011;5806;48.748;9.278;2024-03-02T02:28:03;0.97;;;0.87;;
11498;SDS011;5806;48.748;9.278;2024-03-02T02:30:31;2.60;;;1.53;;
11498;SDS011;5806;48.748;9.278;2024-03-02T02:32:59;2.40;;;1.10;;
11498;SDS011;5806;48.748;9.278;2024-03-02T02:35:26;2.07;;;0.93;;
11498;SDS011;5806;48.748;9.278;2024-03-02T02:37:55;1.43;;;0.90;;
11498;SDS011;5806;48.748;9.278;2024-03-02T02:40:24;2.03;;;0.90;;
11498;SDS011;5806;48.748;9.278;2024-03-02T02:42:52;0.90;;;0.80;;
11498;SDS011;5806;48.748;9.278;2024-03-02T02:45:20;1.47;;;1.00;;
11498;SDS011;5806;48.748;9.278;2024-03-02T02:47:47;1.90;;;1.00;;
11498;SDS011;5806;48.748;9.278;2024-03-02T02:50:15;1.33;;;0.80;;
11498;SDS011;5806;48.748;9.278;2024-03-02T02:52:43;1.97;;;0.90;;
11498;SDS011;5806;48.748;9.278;2024-03-02T02:55:11;1.60;;;1.00;;
11498;SDS011;5806;48.748;9.278;2024-03-02T02:57:41;3.10;;;1.10;;
11498;SDS011;5806;48.748;9.278;2024-03-02T03:00:10;1.37;;;0.90;;
11498;SDS011;5806;48.748;9.278;2024-03-02T03:02:43;1.23;;;1.10;;
11498;SDS011;5806;48.748;9.278;2024-03-02T03:05:14;1.90;;;1.07;;
11498;SDS011;5806;48.748;9.278;2024-03-02T03:07:42;1.63;;;1.23;;
11498;SDS011;5806;48.748;9.278;2024-03-02T03:10:10;1.60;;;1.23;;
11498;SDS011;5806;48.748;9.278;2024-03-02T03:12:38;3.80;;;1.13;;
11498;SDS011;5806;48.748;9.278;2024-03-02T03:15:07;3.13;;;1.57;;
11498;SDS011;5806;48.748;9.278;2024-03-02T03:17:40;1.20;;;1.10;;
11498;SDS011;5806;48.748;9.278;2024-03-02T03:20:09;1.83;;;1.10;;
11498;SDS011;5806;48.748;9.278;2024-03-02T03:22:37;1.20;;;1.00;;
11498;SDS011;5806;48.748;9.278;2024-03-02T03:25:05;1.70;;;0.97;;
11498;SDS011;5806;48.748;9.278;2024-03-02T03:27:35;1.97;;;1.27;;
11498;SDS011;5806;48.748;9.278;2024-03-02T03:30:02;1.57;;;1.13;;
11498;SDS011;5806;48.748;9.278;2024-03-02T03:32:31;1.30;;;0.97;;
11498;SDS011;5806;48.748;9.278;2024-03-02T03:34:58;2.30;;;1.00;;
11498;SDS011;5806;48.748;9.278;2024-03-02T03:37:26;2.30;;;1.23;;
11498;SDS011;5806;48.748;9.278;2024-03-02T03:39:55;1.10;;;1.00;;
11498;SDS011;5806;48.748;9.278;2024-03-02T03:42:23;2.17;;;1.00;;
11498;SDS011;5806;48.748;9.278;2024-03-02T03:44:50;2.27;;;1.10;;
11498;SDS011;5806;48.748;9.278;2024-03-02T03:47:18;1.93;;;1.00;;
11498;SDS011;5806;48.748;9.278;2024-03-02T03:49:46;2.30;;;1.00;;
11498;SDS011;5806;48.748;9.278;2024-03-02T03:52:13;1.60;;;1.40;;
11498;SDS011;5806;48.748;9.278;2024-03-02T03:54:41;1.43;;;1.07;;
11498;SDS011;5806;48.748;9.278;2024-03-02T03:57:10;1.10;;;1.00;;
11498;SDS011;5806;48.748;9.278;2024-03-02T03:59:37;3.23;;;1.20;;
11498;SDS011;5806;48.748;9.278;2024-03-02T04:02:05;4.17;;;1.10;;
11498;SDS011;5806;48.748;9.278;2024-03-02T04:04:33;1.50;;;1.27;;
11498;SDS011;5806;48.748;9.278;2024-03-02T04:07:01;1.80;;;1.00;;
11498;SDS011;5806;48.748;9.278;2024-03-02T04:09:29;1.67;;;1.03;;
11498;SDS011;5806;48.748;9.278;2024-03-02T04:11:57;1.87;;;1.30;;
11498;SDS011;5806;48.748;9.278;2024-03-02T04:14:25;1.40;;;1.30;;
11498;SDS011;5806;48.748;9.278;2024-03-02T04:16:52;2.40;;;1.20;;
11498;SDS011;5806;48.748;9.278;2024-03-02T04:19:20;2.63;;;1.50;;
11498;SDS011;5806;48.748;9.278;2024-03-02T04:21:47;1.50;;;1.27;;
11498;SDS011;5806;48.748;9.278;2024-03-02T04:24:15;1.43;;;1.30;;
11498;SDS011;5806;48.748;9.278;2024-03-02T04:26:42;1.33;;;1.23;;
11498;SDS011;5806;48.748;9.278;2024-03-02T04:29:10;3.20;;;1.60;;
11498;SDS011;5806;48.748;9.278;2024-03-02T04:31:37;2.30;;;1.17;;
11498;SDS011;5806;48.748;9.278;2024-03-02T04:34:05;1.97;;;1.10;;
11498;SDS011;5806;48.748;9.278;2024-03-02T04:36:32;1.50;;;1.10;;
11498;SDS011;5806;48.748;9.278;2024-03-02T04:39:01;1.67;;;1.37;;
11498;SDS011;5806;48.748;9.278;2024-03-02T04:41:28;2.53;;;1.30;;
11498;SDS011;5806;48.748;9.278;2024-03-02T04:43:56;2.30;;;1.20;;
11498;SDS011;5806;48.748;9.278;2024-03-02T04:46:29;3.50;;;1.83;;
11498;SDS011;5806;48.748;9.278;2024-03-02T04:48:53;2.83;;;1.40;;
11498;SDS011;5806;48.748;9.278;2024-03-02T04:51:22;2.10;;;1.30;;
11498;SDS011;5806;48.748;9.278;2024-03-02T04:53:50;2.03;;;1.30;;
11498;SDS011;5806;48.748;9.278;2024-03-02T04:56:18;1.83;;;1.33;;
11498;SDS011;5806;48.748;9.278;2024-03-02T04:58:47;2.63;;;1.20;;
11498;SDS011;5806;48.748;9.278;2024-03-02T05:01:15;2.00;;;1.40;;
11498;SDS011;5806;48.748;9.278;2024-03-02T05:03:43;2.03;;;1.37;;
11498;SDS011;5806;48.748;9.278;2024-03-02T05:06:10;3.37;;;1.70;;
11498;SDS011;5806;48.748;9.278;2024-03-02T05:08:38;2.67;;;1.30;;
11498;SDS011;5806;48.748;9.278;2024-03-02T05:11:06;1.80;;;1.30;;
11498;SDS011;5806;48.748;9.278;2024-03-02T05:13:51;1.37;;;1.13;;
11498;SDS011;5806;48.748;9.278;2024-03-02T05:16:18;1.60;;;1.40;;
11498;SDS011;5806;48.748;9.278;2024-03-02T05:18:46;1.77;;;1.20;;
11498;SDS011;5806;48.748;9.278;2024-03-02T05:21:13;3.87;;;1.40;;
11498;SDS011;5806;48.748;9.278;2024-03-02T05:23:41;2.13;;;1.33;;
11498;SDS011;5806;48.748;9.278;2024-03-02T05:26:10;2.37;;;1.40;;
11498;SDS011;5806;48.748;9.278;2024-03-02T05:28:38;2.10;;;1.50;;
11498;SDS011;5806;48.748;9.278;2024-03-02T05:31:06;2.63;;;1.40;;
11498;SDS011;5806;48.748;9.278;2024-03-02T05:33:36;1.80;;;1.57;;
11498;SDS011;5806;48.748;9.278;2024-03-02T05:36:04;2.03;;;1.37;;
11498;SDS011;5806;48.748;9.278;2024-03-02T05:38:34;2.80;;;1.77;;
11498;SDS011;5806;48.748;9.278;2024-03-02T05:41:01;3.17;;;1.80;;
11498;SDS011;5806;48.748;9.278;2024-03-02T05:43:30;2.70;;;1.80;;
11498;SDS011;5806;48.748;9.278;2024-03-02T05:45:58;2.37;;;1.70;;
11498;SDS011;5806;48.748;9.278;2024-03-02T05:48:25;3.17;;;1.73;;
11498;SDS011;5806;48.748;9.278;2024-03-02T05:50:53;1.73;;;1.40;;
11498;SDS011;5806;48.748;9.278;2024-03-02T05:53:20;2.53;;;1.70;;
11498;SDS011;5806;48.748;9.278;2024-03-02T05:55:48;3.40;;;1.83;;
11498;SDS011;5806;48.748;9.278;2024-03-02T05:58:17;5.23;;;2.50;;
11498;SDS011;5806;48.748;9.278;2024-03-02T06:00:58;4.40;;;2.53;;
11498;SDS011;5806;48.748;9.278;2024-03-02T06:03:26;5.57;;;2.70;;
11498;SDS011;5806;48.748;9.278;2024-03-02T06:05:54;4.43;;;2.63;;
11498;SDS011;5806;48.748;9.278;2024-03-02T06:08:21;3.30;;;2.30;;
11498;SDS011;5806;48.748;9.278;2024-03-02T06:13:19;2.20;;;1.87;;
11498;SDS011;5806;48.748;9.278;2024-03-02T06:15:47;3.53;;;2.00;;
11498;SDS011;5806;48.748;9.278;2024-03-02T06:18:14;2.87;;;2.27;;
11498;SDS011;5806;48.748;9.278;2024-03-02T06:20:42;3.30;;;1.93;;
11498;SDS011;5806;48.748;9.278;2024-03-02T06:23:09;3.23;;;2.23;;
11498;SDS011;5806;48.748;9.278;2024-03-02T06:25:37;3.27;;;2.20;;
11498;SDS011;5806;48.748;9.278;2024-03-02T06:28:04;3.10;;;2.00;;
11498;SDS011;5806;48.748;9.278;2024-03-02T06:30:32;3.47;;;2.13;;
11498;SDS011;5806;48.748;9.278;2024-03-02T06:33:00;2.77;;;2.20;;
11498;SDS011;5806;48.748;9.278;2024-03-02T06:35:29;5.30;;;2.20;;
11498;SDS011;5806;48.748;9.278;2024-03-02T06:37:56;3.37;;;1.70;;
11498;SDS011;5806;48.748;9.278;2024-03-02T06:40:24;3.17;;;1.83;;
11498;SDS011;5806;48.748;9.278;2024-03-02T06:42:51;3.50;;;2.10;;
11498;SDS011;5806;48.748;9.278;2024-03-02T06:45:19;3.43;;;2.10;;
11498;SDS011;5806;48.748;9.278;2024-03-02T06:47:46;3.33;;;2.13;;
11498;SDS011;5806;48.748;9.278;2024-03-02T06:50:14;3.70;;;2.10;;
11498;SDS011;5806;48.748;9.278;2024-03-02T06:52:41;2.97;;;2.10;;
11498;SDS011;5806;48.748;9.278;2024-03-02T06:55:09;3.20;;;2.27;;
11498;SDS011;5806;48.748;9.278;2024-03-02T06:57:37;3.20;;;2.27;;
11498;SDS011;5806;48.748;9.278;2024-03-02T07:00:04;3.37;;;1.97;;
11498;SDS011;5806;48.748;9.278;2024-03-02T07:02:34;2.50;;;2.13;;
11498;SDS011;5806;48.748;9.278;2024-03-02T07:05:03;3.77;;;1.97;;
11498;SDS011;5806;48.748;9.278;2024-03-02T07:07:32;3.60;;;2.23;;
11498;SDS011;5806;48.748;9.278;2024-03-02T07:10:00;2.87;;;1.77;;
11498;SDS011;5806;48.748;9.278;2024-03-02T07:12:28;2.80;;;2.30;;
11498;SDS011;5806;48.748;9.278;2024-03-02T07:14:56;3.13;;;2.17;;
11498;SDS011;5806;48.748;9.278;2024-03-02T07:17:30;1.83;;;1.73;;
11498;SDS011;5806;48.748;9.278;2024-03-02T07:19:58;3.23;;;2.00;;
11498;SDS011;5806;48.748;9.278;2024-03-02T07:22:25;2.50;;;1.90;;
11498;SDS011;5806;48.748;9.278;2024-03-02T07:24:53;3.03;;;2.00;;
11498;SDS011;5806;48.748;9.278;2024-03-02T07:27:21;2.97;;;1.80;;
11498;SDS011;5806;48.748;9.278;2024-03-02T07:29:48;2.53;;;2.03;;
11498;SDS011;5806;48.748;9.278;2024-03-02T07:32:16;3.00;;;2.10;;
11498;SDS011;5806;48.748;9.278;2024-03-02T07:34:43;2.90;;;1.90;;
11498;SDS011;5806;48.748;9.278;2024-03-02T07:37:11;3.63;;;2.23;;
11498;SDS011;5806;48.748;9.278;2024-03-02T07:39:38;5.10;;;2.40;;
11498;SDS011;5806;48.748;9.278;2024-03-02T07:42:06;3.37;;;2.30;;
11498;SDS011;5806;48.748;9.278;2024-03-02T07:44:34;3.27;;;2.20;;
11498;SDS011;5806;48.748;9.278;2024-03-02T07:47:01;4.60;;;2.07;;
11498;SDS011;5806;48.748;9.278;2024-03-02T07:49:29;3.20;;;1.90;;
11498;SDS011;5806;48.748;9.278;2024-03-02T07:51:56;3.77;;;2.00;;
11498;SDS011;5806;48.748;9.278;2024-03-02T07:54:24;3.20;;;1.80;;
11498;SDS011;5806;48.748;9.278;2024-03-02T07:56:51;2.87;;;2.00;;
11498;SDS011;5806;48.748;9.278;2024-03-02T07:59:19;5.57;;;2.00;;
11498;SDS011;5806;48.748;9.278;2024-03-02T08:01:48;2.03;;;1.67;;
11498;SDS011;5806;48.748;9.278;2024-03-02T08:04:16;3.40;;;2.00;;
11498;SDS011;5806;48.748;9.278;2024-03-02T08:06:44;3.27;;;1.80;;
11498;SDS011;5806;48.748;9.278;2024-03-02T08:09:12;3.07;;;2.10;;
11498;SDS011;5806;48.748;9.278;2024-03-02T08:11:40;3.87;;;1.97;;
11498;SDS011;5806;48.748;9.278;2024-03-02T08:14:07;4.27;;;1.97;;
11498;SDS011;5806;48.748;9.278;2024-03-02T08:16:35;4.10;;;1.80;;
11498;SDS011;5806;48.748;9.278;2024-03-02T08:19:02;1.80;;;1.53;;
11498;SDS011;5806;48.748;9.278;2024-03-02T08:21:30;2.93;;;1.90;;
11498;SDS011;5806;48.748;9.278;2024-03-02T08:23:57;2.33;;;1.80;;
11498;SDS011;5806;48.748;9.278;2024-03-02T08:26:25;3.10;;;1.87;;
11498;SDS011;5806;48.748;9.278;2024-03-02T08:28:54;3.20;;;1.70;;
11498;SDS011;5806;48.748;9.278;2024-03-02T08:31:21;1.97;;;1.60;;
11498;SDS011;5806;48.748;9.278;2024-03-02T08:33:49;2.93;;;1.90;;
11498;SDS011;5806;48.748;9.278;2024-03-02T08:36:16;2.73;;;1.80;;
11498;SDS011;5806;48.748;9.278;2024-03-02T08:38:45;4.47;;;2.03;;
11498;SDS011;5806;48.748;9.278;2024-03-02T08:41:12;3.07;;;1.67;;
11498;SDS011;5806;48.748;9.278;2024-03-02T08:43:41;3.23;;;1.70;;
11498;SDS011;5806;48.748;9.278;2024-03-02T08:46:10;2.50;;;1.40;;
11498;SDS011;5806;48.748;9.278;2024-03-02T08:48:37;3.47;;;1.30;;
11498;SDS011;5806;48.748;9.278;2024-03-02T08:51:04;2.43;;;1.43;;
11498;SDS011;5806;48.748;9.278;2024-03-02T08:53:33;2.87;;;1.10;;
11498;SDS011;5806;48.748;9.278;2024-03-02T08:56:01;2.67;;;1.37;;
11498;SDS011;5806;48.748;9.278;2024-03-02T08:58:30;1.77;;;1.27;;
11498;SDS011;5806;48.748;9.278;2024-03-02T09:00:58;3.30;;;1.80;;
11498;SDS011;5806;48.748;9.278;2024-03-02T09:03:25;3.00;;;1.83;;
11498;SDS011;5806;48.748;9.278;2024-03-02T09:05:53;2.70;;;1.47;;
11498;SDS011;5806;48.748;9.278;2024-03-02T09:08:20;2.27;;;1.50;;
11498;SDS011;5806;48.748;9.278;2024-03-02T09:10:48;4.03;;;1.47;;
11498;SDS011;5806;48.748;9.278;2024-03-02T09:13:15;2.43;;;1.57;;
11498;SDS011;5806;48.748;9.278;2024-03-02T09:15:42;2.27;;;1.63;;
11498;SDS011;5806;48.748;9.278;2024-03-02T09:18:10;2.27;;;1.73;;
11498;SDS011;5806;48.748;9.278;2024-03-02T09:20:37;4.07;;;1.60;;
11498;SDS011;5806;48.748;9.278;2024-03-02T09:23:05;4.57;;;2.10;;
11498;SDS011;5806;48.748;9.278;2024-03-02T09:25:32;3.83;;;1.63;;
11498;SDS011;5806;48.748;9.278;2024-03-02T09:28:00;2.87;;;1.47;;
11498;SDS011;5806;48.748;9.278;2024-03-02T09:30:28;2.30;;;1.40;;
11498;SDS011;5806;48.748;9.278;2024-03-02T09:32:57;2.50;;;1.30;;
11498;SDS011;5806;48.748;9.278;2024-03-02T09:35:25;2.53;;;1.33;;
11498;SDS011;5806;48.748;9.278;2024-03-02T09:37:52;1.60;;;1.23;;
11498;SDS011;5806;48.748;9.278;2024-03-02T09:40:21;2.10;;;1.30;;
11498;SDS011;5806;48.748;9.278;2024-03-02T09:42:49;5.67;;;1.40;;
11498;SDS011;5806;48.748;9.278;2024-03-02T09:45:21;2.30;;;1.30;;
11498;SDS011;5806;48.748;9.278;2024-03-02T09:47:49;2.03;;;1.30;;
11498;SDS011;5806;48.748;9.278;2024-03-02T09:50:17;2.70;;;1.73;;
11498;SDS011;5806;48.748;9.278;2024-03-02T09:52:47;2.73;;;1.53;;
11498;SDS011;5806;48.748;9.278;2024-03-02T09:55:16;1.70;;;1.23;;
11498;SDS011;5806;48.748;9.278;2024-03-02T09:57:45;1.40;;;1.17;;
11498;SDS011;5806;48.748;9.278;2024-03-02T10:00:16;1.57;;;0.97;;
11498;SDS011;5806;48.748;9.278;2024-03-02T10:02:44;2.23;;;1.53;;
11498;SDS011;5806;48.748;9.278;2024-03-02T10:05:13;2.50;;;1.40;;
11498;SDS011;5806;48.748;9.278;2024-03-02T10:08:00;2.10;;;1.40;;
11498;SDS011;5806;48.748;9.278;2024-03-02T10:10:35;2.17;;;1.10;;
11498;SDS011;5806;48.748;9.278;2024-03-02T10:13:06;1.80;;;1.37;;
11498;SDS011;5806;48.748;9.278;2024-03-02T10:15:34;2.17;;;1.30;;
11498;SDS011;5806;48.748;9.278;2024-03-02T10:18:14;2.70;;;1.30;;
11498;SDS011;5806;48.748;9.278;2024-03-02T10:20:39;1.37;;;1.27;;
11498;SDS011;5806;48.748;9.278;2024-03-02T10:23:14;2.10;;;1.27;;
11498;SDS011;5806;48.748;9.278;2024-03-02T10:25:43;3.10;;;1.30;;
11498;SDS011;5806;48.748;9.278;2024-03-02T10:28:10;3.20;;;0.97;;
11498;SDS011;5806;48.748;9.278;2024-03-02T10:30:38;2.30;;;1.57;;
11498;SDS011;5806;48.748;9.278;2024-03-02T10:33:05;1.63;;;1.13;;
11498;SDS011;5806;48.748;9.278;2024-03-02T10:35:33;2.30;;;1.13;;
11498;SDS011;5806;48.748;9.278;2024-03-02T10:38:03;2.93;;;1.37;;
11498;SDS011;5806;48.748;9.278;2024-03-02T10:40:32;2.60;;;1.20;;
11498;SDS011;5806;48.748;9.278;2024-03-02T10:43:00;1.97;;;1.23;;
11498;SDS011;5806;48.748;9.278;2024-03-02T10:45:29;1.47;;;1.20;;
11498;SDS011;5806;48.748;9.278;2024-03-02T10:47:56;2.23;;;1.20;;
11498;SDS011;5806;48.748;9.278;2024-03-02T10:50:24;2.53;;;1.30;;
11498;SDS011;5806;48.748;9.278;2024-03-02T10:52:51;3.10;;;1.50;;
11498;SDS011;5806;48.748;9.278;2024-03-02T10:55:19;2.53;;;1.20;;
11498;SDS011;5806;48.748;9.278;2024-03-02T10:57:53;2.70;;;1.40;;
11498;SDS011;5806;48.748;9.278;2024-03-02T11:00:24;2.47;;;1.10;;
11498;SDS011;5806;48.748;9.278;2024-03-02T11:02:57;3.33;;;1.10;;
11498;SDS011;5806;48.748;9.278;2024-03-02T11:05:27;3.57;;;1.37;;
11498;SDS011;5806;48.748;9.278;2024-03-02T11:08:06;1.40;;;1.00;;
11498;SDS011;5806;48.748;9.278;2024-03-02T11:10:37;1.63;;;1.10;;
11498;SDS011;5806;48.748;9.278;2024-03-02T11:13:06;2.77;;;1.10;;
11498;SDS011;5806;48.748;9.278;2024-03-02T11:15:43;2.60;;;1.20;;
11498;SDS011;5806;48.748;9.278;2024-03-02T11:18:09;1.47;;;0.87;;
11498;SDS011;5806;48.748;9.278;2024-03-02T11:20:38;1.73;;;1.00;;
11498;SDS011;5806;48.748;9.278;2024-03-02T11:23:07;2.43;;;1.10;;
11498;SDS011;5806;48.748;9.278;2024-03-02T11:25:35;3.90;;;1.17;;
11498;SDS011;5806;48.748;9.278;2024-03-02T11:28:05;2.50;;;1.03;;
11498;SDS011;5806;48.748;9.278;2024-03-02T11:33:08;1.30;;;0.97;;
11498;SDS011;5806;48.748;9.278;2024-03-02T11:35:35;2.73;;;1.33;;
11498;SDS011;5806;48.748;9.278;2024-03-02T11:38:04;1.27;;;1.00;;
11498;SDS011;5806;48.748;9.278;2024-03-02T11:40:33;1.30;;;0.90;;
11498;SDS011;5806;48.748;9.278;2024-03-02T11:43:00;2.87;;;1.07;;
11498;SDS011;5806;48.748;9.278;2024-03-02T11:45:28;1.80;;;1.10;;
11498;SDS011;5806;48.748;9.278;2024-03-02T11:47:57;1.57;;;1.00;;
11498;SDS011;5806;48.748;9.278;2024-03-02T11:50:29;1.30;;;0.83;;
11498;SDS011;5806;48.748;9.278;2024-03-02T11:52:59;1.93;;;1.00;;
11498;SDS011;5806;48.748;9.278;2024-03-02T11:55:27;1.87;;;1.00;;
11498;SDS011;5806;48.748;9.278;2024-03-02T11:57:56;0.43;;;0.43;;
11498;SDS011;5806;48.748;9.278;2024-03-02T12:00:25;1.03;;;0.70;;
11498;SDS011;5806;48.748;9.278;2024-03-02T12:03:03;1.17;;;0.80;;
11498;SDS011;5806;48.748;9.278;2024-03-02T12:05:32;2.30;;;1.03;;
11498;SDS011;5806;48.748;9.278;2024-03-02T12:08:01;1.67;;;1.00;;
11498;SDS011;5806;48.748;9.278;2024-03-02T12:10:30;2.60;;;1.03;;
11498;SDS011;5806;48.748;9.278;2024-03-02T12:12:58;1.20;;;1.10;;
11498;SDS011;5806;48.748;9.278;2024-03-02T12:15:27;1.50;;;1.10;;
11498;SDS011;5806;48.748;9.278;2024-03-02T12:18:01;1.13;;;0.70;;
11498;SDS011;5806;48.748;9.278;2024-03-02T12:20:27;3.67;;;0.87;;
11498;SDS011;5806;48.748;9.278;2024-03-02T12:22:57;1.70;;;1.10;;
11498;SDS011;5806;48.748;9.278;2024-03-02T12:25:26;1.97;;;0.80;;
11498;SDS011;5806;48.748;9.278;2024-03-02T12:27:55;1.40;;;1.03;;
11498;SDS011;5806;48.748;9.278;2024-03-02T12:30:23;1.20;;;1.10;;
11498;SDS011;5806;48.748;9.278;2024-03-02T12:32:52;2.23;;;1.00;;
11498;SDS011;5806;48.748;9.278;2024-03-02T12:35:20;2.03;;;1.10;;
11498;SDS011;5806;48.748;9.278;2024-03-02T12:37:48;1.13;;;0.80;;
11498;SDS011;5806;48.748;9.278;2024-03-02T12:40:17;2.33;;;1.20;;
11498;SDS011;5806;48.748;9.278;2024-03-02T12:42:46;1.20;;;1.10;;
11498;SDS011;5806;48.748;9.278;2024-03-02T12:45:15;1.83;;;1.03;;
11498;SDS011;5806;48.748;9.278;2024-03-02T12:47:45;1.60;;;1.00;;
11498;SDS011;5806;48.748;9.278;2024-03-02T12:50:12;2.53;;;1.07;;
11498;SDS011;5806;48.748;9.278;2024-03-02T12:52:39;0.83;;;0.80;;
11498;SDS011;5806;48.748;9.278;2024-03-02T12:55:07;1.53;;;0.90;;
11498;SDS011;5806;48.748;9.278;2024-03-02T12:57:34;1.93;;;1.00;;
11498;SDS011;5806;48.748;9.278;2024-03-02T13:00:06;1.23;;;0.90;;
11498;SDS011;5806;48.748;9.278;2024-03-02T13:02:35;1.40;;;0.70;;
11498;SDS011;5806;48.748;9.278;2024-03-02T13:05:05;0.97;;;0.87;;
11498;SDS011;5806;48.748;9.278;2024-03-02T13:07:36;3.10;;;1.00;;
11498;SDS011;5806;48.748;9.278;2024-03-02T13:10:05;0.70;;;0.70;;
11498;SDS011;5806;48.748;9.278;2024-03-02T13:12:35;1.80;;;0.90;;
11498;SDS011;5806;48.748;9.278;2024-03-02T13:15:03;1.30;;;0.97;;
11498;SDS011;5806;48.748;9.278;2024-03-02T13:17:31;0.97;;;0.80;;
11498;SDS011;5806;48.748;9.278;2024-03-02T13:20:00;1.20;;;0.90;;
11498;SDS011;5806;48.748;9.278;2024-03-02T13:22:30;0.87;;;0.80;;
11498;SDS011;5806;48.748;9.278;2024-03-02T13:24:57;2.30;;;0.60;;
11498;SDS011;5806;48.748;9.278;2024-03-02T13:27:26;2.37;;;0.87;;
11498;SDS011;5806;48.748;9.278;2024-03-02T13:29:54;2.47;;;0.83;;
11498;SDS011;5806;48.748;9.278;2024-03-02T13:32:21;0.80;;;0.70;;
11498;SDS011;5806;48.748;9.278;2024-03-02T13:34:49;1.47;;;1.10;;
11498;SDS011;5806;48.748;9.278;2024-03-02T13:37:17;2.97;;;0.73;;
11498;SDS011;5806;48.748;9.278;2024-03-02T13:39:44;1.30;;;0.80;;
11498;SDS011;5806;48.748;9.278;2024-03-02T13:42:12;0.97;;;0.90;;
11498;SDS011;5806;48.748;9.278;2024-03-02T13:44:41;1.40;;;0.83;;
11498;SDS011;5806;48.748;9.278;2024-03-02T13:47:11;1.10;;;0.87;;
11498;SDS011;5806;48.748;9.278;2024-03-02T13:49:39;1.40;;;0.90;;
11498;SDS011;5806;48.748;9.278;2024-03-02T13:52:08;1.17;;;0.70;;
11498;SDS011;5806;48.748;9.278;2024-03-02T13:54:39;1.77;;;0.80;;
11498;SDS011;5806;48.748;9.278;2024-03-02T13:57:07;1.30;;;0.90;;
11498;SDS011;5806;48.748;9.278;2024-03-02T13:59:35;1.20;;;0.70;;
11498;SDS011;5806;48.748;9.278;2024-03-02T14:02:04;1.67;;;0.87;;
11498;SDS011;5806;48.748;9.278;2024-03-02T14:04:32;0.97;;;0.87;;
11498;SDS011;5806;48.748;9.278;2024-03-02T14:07:01;1.50;;;1.10;;
11498;SDS011;5806;48.748;9.278;2024-03-02T14:09:29;1.43;;;1.03;;
11498;SDS011;5806;48.748;9.278;2024-03-02T14:11:57;1.03;;;0.80;;
11498;SDS011;5806;48.748;9.278;2024-03-02T14:14:26;1.23;;;0.77;;
11498;SDS011;5806;48.748;9.278;2024-03-02T14:16:54;1.83;;;0.77;;
11498;SDS011;5806;48.748;9.278;2024-03-02T14:19:28;1.80;;;1.07;;
11498;SDS011;5806;48.748;9.278;2024-03-02T14:21:56;1.80;;;0.73;;
11498;SDS011;5806;48.748;9.278;2024-03-02T14:24:23;1.33;;;0.77;;
11498;SDS011;5806;48.748;9.278;2024-03-02T14:26:52;0.90;;;0.80;;
11498;SDS011;5806;48.748;9.278;2024-03-02T14:29:20;0.80;;;0.80;;
11498;SDS011;5806;48.748;9.278;2024-03-02T14:31:47;1.83;;;1.00;;
11498;SDS011;5806;48.748;9.278;2024-03-02T14:34:15;1.00;;;0.90;;
11498;SDS011;5806;48.748;9.278;2024-03-02T14:36:42;1.73;;;0.90;;
11498;SDS011;5806;48.748;9.278;2024-03-02T14:39:10;0.90;;;0.80;;
11498;SDS011;5806;48.748;9.278;2024-03-02T14:41:38;1.73;;;1.00;;
11498;SDS011;5806;48.748;9.278;2024-03-02T14:44:05;0.90;;;0.80;;
11498;SDS011;5806;48.748;9.278;2024-03-02T14:46:32;1.00;;;0.73;;
11498;SDS011;5806;48.748;9.278;2024-03-02T14:49:00;1.10;;;0.80;;
11498;SDS011;5806;48.748;9.278;2024-03-02T14:51:27;0.73;;;0.60;;
11498;SDS011;5806;48.748;9.278;2024-03-02T14:53:55;2.63;;;0.90;;
11498;SDS011;5806;48.748;9.278;2024-03-02T14:56:23;1.77;;;0.90;;
11498;SDS011;5806;48.748;9.278;2024-03-02T14:58:50;1.43;;;0.90;;
11498;SDS011;5806;48.748;9.278;2024-03-02T15:01:19;0.97;;;0.80;;
11498;SDS011;5806;48.748;9.278;2024-03-02T15:03:49;0.90;;;0.67;;
11498;SDS011;5806;48.748;9.278;2024-03-02T15:06:16;1.67;;;0.60;;
11498;SDS011;5806;48.748;9.278;2024-03-02T15:08:44;0.80;;;0.60;;
11498;SDS011;5806;48.748;9.278;2024-03-02T15:11:14;1.00;;;0.60;;
11498;SDS011;5806;48.748;9.278;2024-03-02T15:13:42;2.23;;;0.97;;
11498;SDS011;5806;48.748;9.278;2024-03-02T15:16:09;0.90;;;0.70;;
11498;SDS011;5806;48.748;9.278;2024-03-02T15:18:37;1.40;;;1.20;;